»·PEaware :: S1758Z TAPA-TFFJ

S1758Z :: TAPA-TFFJ

FLIGHT INFORMATION

Flight Status: Arrived
Operator: Unknown
More flights by this operator :: More flights under this callsign
Pilot: David C. (18114)
Aircraft: BEECH AIRCRAFT BARON
(BE58)
More flights by this aircraft type
Origin: TAPA V C Bird Intl
Antigua and Barbuda
Destination: TFFJ St Barthelemy Is.
Guadeloupe
More flights between these airports :: More routes between these airports
Route: TRPG TKPN TKPK TNCE TNCS TNCM
File this flight plan on PilotEdge
Remarks: test flight CTAF
Altitude:
(Current/Filed)
5,000ft
Speed:
(Current/Filed)
115kts
Departed: 03-Feb-18 10:08 AM
Arrived: 03-Feb-18 12:31 PM
Distance/Time
Traveled:
76nm/2:23
Distance/Time
To Go:
Arrived

Flight Plot

Page will automatically refresh every two minutes.

Flight plan parsing failed; only flown route is shown


Map Options




Map Legend


Flown Route
Filed Route
Departure Airport
Arrival Airport
Navaid (VOR, NDB)
Fix

Horizontal Profiles

Position Reports

Time Latitude Longitude Heading Altitude Ground
Speed
03-Feb-18 09:39 17.140471 -61.791206 328 63ft 0kts
03-Feb-18 09:40 17.140471 -61.791206 327 63ft 0kts
03-Feb-18 09:41 17.140471 -61.791206 328 63ft 0kts
03-Feb-18 09:42 17.140471 -61.791206 328 63ft 0kts
03-Feb-18 09:43 17.140471 -61.791206 328 63ft 0kts
03-Feb-18 09:44 17.140471 -61.791206 328 63ft 0kts
03-Feb-18 09:45 17.140471 -61.791206 328 63ft 0kts
03-Feb-18 09:46 17.140471 -61.791206 328 63ft 0kts
03-Feb-18 09:47 17.140471 -61.791206 328 63ft 0kts
03-Feb-18 09:48 17.140471 -61.791206 328 63ft 0kts
03-Feb-18 09:49 17.140471 -61.791206 328 63ft 0kts
03-Feb-18 09:50 17.140294 -61.791285 181 63ft 7kts
03-Feb-18 09:51 17.138078 -61.793714 314 63ft 0kts
03-Feb-18 09:52 17.138078 -61.793714 314 63ft 0kts
03-Feb-18 09:53 17.138078 -61.793714 314 63ft 0kts
03-Feb-18 09:54 17.138078 -61.793714 314 63ft 0kts
03-Feb-18 09:55 17.138078 -61.793714 314 63ft 0kts
03-Feb-18 09:56 17.138078 -61.793714 314 63ft 0kts
03-Feb-18 09:57 17.138078 -61.793714 314 63ft 0kts
03-Feb-18 09:58 17.138078 -61.793714 314 63ft 0kts
03-Feb-18 09:59 17.138078 -61.793714 314 63ft 0kts
03-Feb-18 10:00 17.138078 -61.793714 314 63ft 0kts
03-Feb-18 10:01 17.138078 -61.793714 314 63ft 0kts
03-Feb-18 10:02 17.138205 -61.793565 151 63ft 0kts
03-Feb-18 10:03 17.137732 -61.793358 180 63ft 6kts
03-Feb-18 10:04 17.137567 -61.793442 231 63ft 0kts
03-Feb-18 10:05 17.137470 -61.793602 239 63ft 0kts
03-Feb-18 10:06 17.137384 -61.793760 238 63ft 0kts
03-Feb-18 10:07 17.137384 -61.793760 238 63ft 0kts
03-Feb-18 10:08 17.137384 -61.793760 238 63ft 0kts
03-Feb-18 10:09 17.137075 -61.794302 239 63ft 12kts
03-Feb-18 10:10 17.135355 -61.797219 236 63ft 0kts
03-Feb-18 10:11 17.135194 -61.797480 236 63ft 0kts
03-Feb-18 10:12 17.135106 -61.797705 235 63ft 2kts
03-Feb-18 10:13 17.133856 -61.798917 178 63ft 0kts
03-Feb-18 10:14 17.139037 -61.788516 58 238ft 113kts
03-Feb-18 10:15 17.154496 -61.759679 58 1389ft 143kts
03-Feb-18 10:16 17.175146 -61.724438 56 2449ft 161kts
03-Feb-18 10:17 17.195141 -61.679546 69 2453ft 166kts
03-Feb-18 10:18 17.179731 -61.653470 202 2462ft 158kts
03-Feb-18 10:19 17.143979 -61.682018 220 2457ft 166kts
03-Feb-18 10:20 17.106089 -61.709374 204 2456ft 166kts
03-Feb-18 10:21 17.084541 -61.747200 264 2457ft 166kts
03-Feb-18 10:22 17.079482 -61.795416 263 2456ft 167kts
03-Feb-18 10:23 17.074578 -61.843602 264 2456ft 167kts
03-Feb-18 10:24 17.045739 -61.877831 209 2456ft 166kts
03-Feb-18 10:25 17.007704 -61.905441 215 2456ft 167kts
03-Feb-18 10:26 16.968317 -61.935613 217 2458ft 185kts
03-Feb-18 10:27 16.927248 -61.968491 217 2456ft 184kts
03-Feb-18 10:28 16.888206 -62.001078 219 2456ft 182kts
03-Feb-18 10:29 16.850200 -62.035713 225 2456ft 181kts
03-Feb-18 10:30 16.826649 -62.080083 261 2457ft 181kts
03-Feb-18 10:31 16.819057 -62.132233 261 2456ft 182kts
03-Feb-18 10:32 16.795917 -62.175924 224 2405ft 184kts
03-Feb-18 10:33 16.776176 -62.220914 230 2198ft 158kts
03-Feb-18 10:34 16.785745 -62.226666 87 1223ft 108kts
03-Feb-18 10:35 16.787470 -62.214423 353 833ft 93kts
03-Feb-18 10:36 16.791309 -62.193191 53 551ft 6kts
03-Feb-18 10:37 16.792151 -62.193238 103 551ft 0kts
03-Feb-18 10:38 16.792032 -62.194077 219 551ft 0kts
03-Feb-18 10:39 16.791910 -62.194201 260 551ft 0kts
03-Feb-18 10:40 16.791908 -62.194257 273 551ft 3kts
03-Feb-18 10:41 16.791839 -62.194602 236 551ft 0kts
03-Feb-18 10:42 16.791674 -62.194650 179 551ft 4kts
03-Feb-18 10:43 16.791317 -62.188117 90 750ft 90kts
03-Feb-18 10:44 16.817167 -62.182746 320 1658ft 153kts
03-Feb-18 10:45 16.848519 -62.214193 314 2464ft 167kts
03-Feb-18 10:46 16.881660 -62.251580 311 2456ft 177kts
03-Feb-18 10:47 16.914325 -62.289059 313 2456ft 173kts
03-Feb-18 10:48 16.947772 -62.324894 314 2456ft 172kts
03-Feb-18 10:49 16.980923 -62.360856 314 2456ft 171kts
03-Feb-18 10:50 17.012269 -62.394908 314 2456ft 160kts
03-Feb-18 10:51 17.034675 -62.425315 297 2462ft 114kts
03-Feb-18 10:52 17.059130 -62.451800 311 2667ft 119kts
03-Feb-18 10:53 17.085058 -62.472726 310 2651ft 117kts
03-Feb-18 10:54 17.104048 -62.481862 85 1850ft 158kts
03-Feb-18 10:55 17.104048 -62.481862 85 1850ft 158kts
03-Feb-18 10:56 17.108460 -62.472798 31 1360ft 161kts
03-Feb-18 10:57 17.142853 -62.491944 323 1004ft 147kts
03-Feb-18 10:58 17.171362 -62.523227 311 1204ft 140kts
03-Feb-18 10:59 17.201178 -62.551107 320 865ft 140kts
03-Feb-18 11:00 17.217092 -62.586710 262 718ft 149kts
03-Feb-18 11:01 17.200124 -62.619545 161 835ft 151kts
03-Feb-18 11:02 17.195009 -62.577992 66 817ft 172kts
03-Feb-18 11:03 17.217073 -62.563286 312 884ft 155kts
03-Feb-18 11:04 17.210504 -62.565128 229 624ft 123kts
03-Feb-18 11:05 17.205985 -62.589294 269 15ft 0kts
03-Feb-18 11:06 17.205985 -62.589294 269 15ft 0kts
03-Feb-18 11:07 17.204793 -62.592075 89 15ft 0kts
03-Feb-18 11:08 17.204793 -62.592075 89 15ft 0kts
03-Feb-18 11:09 17.204793 -62.592075 89 15ft 0kts
03-Feb-18 11:10 17.204793 -62.592075 89 15ft 0kts
03-Feb-18 11:11 17.204793 -62.592075 89 15ft 0kts
03-Feb-18 11:12 17.204793 -62.592075 89 15ft 0kts
03-Feb-18 11:13 17.204900 -62.592067 313 15ft 7kts
03-Feb-18 11:15 17.205140 -62.592688 358 15ft 6kts
03-Feb-18 11:16 17.205647 -62.587733 88 17ft 92kts
03-Feb-18 11:17 17.218384 -62.558080 15 1020ft 136kts
03-Feb-18 11:18 17.250056 -62.578761 297 1985ft 150kts
03-Feb-18 11:19 17.257599 -62.623386 296 1858ft 153kts
03-Feb-18 11:20 17.278680 -62.657839 303 720ft 138kts
03-Feb-18 11:21 17.303611 -62.684177 327 759ft 131kts
03-Feb-18 11:22 17.295759 -62.717118 229 826ft 140kts
03-Feb-18 11:22 17.292314 -62.735334 43 1163ft 132kts
03-Feb-18 11:23 17.315361 -62.697324 64 985ft 163kts
03-Feb-18 11:25 17.325310 -62.703843 235 1151ft 155kts
03-Feb-18 11:25 17.306213 -62.734930 236 981ft 151kts
03-Feb-18 11:26 17.284377 -62.770091 189 740ft 138kts
03-Feb-18 11:28 17.298629 -62.739627 61 418ft 106kts
03-Feb-18 11:29 17.310597 -62.719025 83 170ft 33kts
03-Feb-18 11:29 17.310775 -62.717327 87 170ft 0kts
03-Feb-18 11:30 17.307897 -62.721065 243 170ft 24kts
03-Feb-18 11:31 17.307742 -62.722006 264 170ft 0kts
03-Feb-18 11:32 17.307416 -62.723189 262 170ft 18kts
03-Feb-18 11:33 17.307342 -62.723883 260 170ft 0kts
03-Feb-18 11:34 17.307303 -62.724096 265 170ft 0kts
03-Feb-18 11:35 17.311630 -62.717968 57 244ft 99kts
03-Feb-18 11:36 17.341276 -62.710121 324 1193ft 145kts
03-Feb-18 11:37 17.369329 -62.742813 316 1844ft 161kts
03-Feb-18 11:38 17.400251 -62.760224 333 1980ft 176kts
03-Feb-18 11:39 17.440917 -62.786594 332 2331ft 168kts
03-Feb-18 11:40 17.480816 -62.812635 332 2480ft 176kts
03-Feb-18 11:41 17.522773 -62.839563 337 2480ft 175kts
03-Feb-18 11:42 17.565857 -62.861190 338 2477ft 170kts
03-Feb-18 11:43 17.608544 -62.882547 337 2466ft 170kts
03-Feb-18 11:44 17.651017 -62.903666 338 2468ft 169kts
03-Feb-18 11:45 17.692838 -62.926195 336 2470ft 170kts
03-Feb-18 11:46 17.734694 -62.948697 337 2479ft 169kts
03-Feb-18 11:47 17.776296 -62.970993 337 2490ft 168kts
03-Feb-18 11:48 17.817750 -62.993207 336 2503ft 168kts
03-Feb-18 11:49 17.859370 -63.015560 337 2509ft 168kts
03-Feb-18 11:50 17.900737 -63.037577 337 2515ft 167kts
03-Feb-18 11:51 17.941505 -63.059173 337 2512ft 162kts
03-Feb-18 11:52 17.978449 -63.075317 341 1292ft 124kts
03-Feb-18 11:53 18.006778 -63.095933 318 1128ft 144kts
03-Feb-18 11:54 18.021863 -63.133826 259 1023ft 167kts
03-Feb-18 11:55 18.019425 -63.172728 357 1308ft 124kts
03-Feb-18 11:56 18.033416 -63.145795 76 556ft 108kts
03-Feb-18 11:57 18.039987 -63.116682 78 15ft 77kts
03-Feb-18 11:58 18.041261 -63.113226 147 15ft 0kts
03-Feb-18 11:59 18.041261 -63.113226 147 15ft 0kts
03-Feb-18 12:00 18.041261 -63.113226 147 15ft 0kts
03-Feb-18 12:01 18.041261 -63.113226 147 15ft 0kts
03-Feb-18 12:02 18.041261 -63.113226 147 15ft 0kts
03-Feb-18 12:03 18.041261 -63.113226 147 15ft 0kts
03-Feb-18 12:04 18.041261 -63.113226 147 15ft 0kts
03-Feb-18 12:05 17.204793 -62.592067 88 16ft 0kts
03-Feb-18 12:06 18.040971 -63.117680 226 16ft 0kts
03-Feb-18 12:07 18.040971 -63.117680 226 16ft 0kts
03-Feb-18 12:08 18.040971 -63.117680 226 16ft 0kts
03-Feb-18 12:09 18.040971 -63.117680 226 16ft 0kts
03-Feb-18 12:10 18.040971 -63.117680 226 16ft 0kts
03-Feb-18 12:11 18.040971 -63.117680 226 16ft 0kts
03-Feb-18 12:12 18.040971 -63.117680 226 16ft 0kts
03-Feb-18 12:13 18.040971 -63.117680 226 16ft 0kts
03-Feb-18 12:14 18.040971 -63.117680 226 16ft 0kts
03-Feb-18 12:15 18.040971 -63.117680 226 16ft 0kts
03-Feb-18 12:16 18.040971 -63.117680 226 16ft 0kts
03-Feb-18 12:17 18.040971 -63.117680 226 16ft 0kts
03-Feb-18 12:18 18.040971 -63.117680 226 16ft 0kts
03-Feb-18 12:19 18.040971 -63.117680 226 16ft 0kts
03-Feb-18 12:20 18.040971 -63.117680 226 16ft 0kts
03-Feb-18 12:21 18.040971 -63.117680 226 16ft 0kts
03-Feb-18 12:22 18.039633 -63.118828 80 16ft 16kts
03-Feb-18 12:23 18.038681 -63.095185 120 674ft 112kts
03-Feb-18 12:24 18.015398 -63.069916 121 1568ft 134kts
03-Feb-18 12:25 18.006384 -63.031574 116 2294ft 144kts
03-Feb-18 12:26 17.982659 -62.993336 120 2470ft 162kts
03-Feb-18 12:27 17.958867 -62.951993 120 2501ft 168kts
03-Feb-18 12:28 17.934854 -62.909836 120 2500ft 166kts
03-Feb-18 12:29 17.910424 -62.875919 133 1857ft 129kts
03-Feb-18 12:30 17.901833 -62.839527 83 702ft 120kts
03-Feb-18 12:31 17.916592 -62.853067 275 661ft 100kts
03-Feb-18 12:32 17.899331 -62.853662 215 629ft 74kts
03-Feb-18 12:33 17.904471 -62.843143 90 2ft 69kts
03-Feb-18 12:34 17.918440 -62.849700 293 475ft 135kts
03-Feb-18 12:35 17.914961 -62.877420 133 574ft 99kts
03-Feb-18 12:36 17.904362 -62.859317 94 204ft 68kts
03-Feb-18 12:37 17.904391 -62.844011 88 2ft 11kts
03-Feb-18 12:38 17.903938 -62.844008 245 2ft 7kts

Navigation Log

Ident Type
Flight plan parsing failed, navigation log unavailable